sensor_id;sensor_type;location;lat;lon;timestamp;P1;durP1;ratioP1;P2;durP2;ratioP2
3587;SDS011;1808;53.596;9.972;2023-06-04T00:00:56;4.75;;;2.60;;
3587;SDS011;1808;53.596;9.972;2023-06-04T00:03:23;5.88;;;2.15;;
3587;SDS011;1808;53.596;9.972;2023-06-04T00:05:50;5.60;;;2.45;;
3587;SDS011;1808;53.596;9.972;2023-06-04T00:08:16;6.50;;;2.33;;
3587;SDS011;1808;53.596;9.972;2023-06-04T00:10:42;5.95;;;2.35;;
3587;SDS011;1808;53.596;9.972;2023-06-04T00:13:09;4.03;;;2.10;;
3587;SDS011;1808;53.596;9.972;2023-06-04T00:15:37;3.53;;;2.40;;
3587;SDS011;1808;53.596;9.972;2023-06-04T00:18:03;5.30;;;2.40;;
3587;SDS011;1808;53.596;9.972;2023-06-04T00:20:30;4.82;;;2.55;;
3587;SDS011;1808;53.596;9.972;2023-06-04T00:22:56;4.13;;;2.50;;
3587;SDS011;1808;53.596;9.972;2023-06-04T00:25:23;4.07;;;2.30;;
3587;SDS011;1808;53.596;9.972;2023-06-04T00:27:49;3.97;;;2.45;;
3587;SDS011;1808;53.596;9.972;2023-06-04T00:30:15;4.15;;;2.50;;
3587;SDS011;1808;53.596;9.972;2023-06-04T00:32:43;6.40;;;2.70;;
3587;SDS011;1808;53.596;9.972;2023-06-04T00:35:11;4.78;;;2.45;;
3587;SDS011;1808;53.596;9.972;2023-06-04T00:37:38;5.18;;;2.50;;
3587;SDS011;1808;53.596;9.972;2023-06-04T00:40:05;5.80;;;2.85;;
3587;SDS011;1808;53.596;9.972;2023-06-04T00:42:32;8.30;;;2.40;;
3587;SDS011;1808;53.596;9.972;2023-06-04T00:44:58;4.90;;;2.63;;
3587;SDS011;1808;53.596;9.972;2023-06-04T00:47:25;4.72;;;2.20;;
3587;SDS011;1808;53.596;9.972;2023-06-04T00:49:53;5.75;;;2.55;;
3587;SDS011;1808;53.596;9.972;2023-06-04T00:52:20;5.43;;;2.10;;
3587;SDS011;1808;53.596;9.972;2023-06-04T00:54:46;7.28;;;3.72;;
3587;SDS011;1808;53.596;9.972;2023-06-04T00:57:13;3.80;;;2.10;;
3587;SDS011;1808;53.596;9.972;2023-06-04T00:59:40;5.13;;;2.53;;
3587;SDS011;1808;53.596;9.972;2023-06-04T01:02:08;4.70;;;2.40;;
3587;SDS011;1808;53.596;9.972;2023-06-04T01:04:37;7.90;;;2.53;;
3587;SDS011;1808;53.596;9.972;2023-06-04T01:07:11;5.00;;;2.30;;
3587;SDS011;1808;53.596;9.972;2023-06-04T01:09:39;4.78;;;2.40;;
3587;SDS011;1808;53.596;9.972;2023-06-04T01:12:07;5.57;;;2.08;;
3587;SDS011;1808;53.596;9.972;2023-06-04T01:14:34;4.45;;;2.60;;
3587;SDS011;1808;53.596;9.972;2023-06-04T01:17:01;4.68;;;2.30;;
3587;SDS011;1808;53.596;9.972;2023-06-04T01:19:34;4.65;;;2.22;;
3587;SDS011;1808;53.596;9.972;2023-06-04T01:22:19;4.47;;;2.30;;
3587;SDS011;1808;53.596;9.972;2023-06-04T01:24:56;3.67;;;2.22;;
3587;SDS011;1808;53.596;9.972;2023-06-04T01:27:26;5.53;;;2.40;;
3587;SDS011;1808;53.596;9.972;2023-06-04T01:29:53;6.25;;;2.22;;
3587;SDS011;1808;53.596;9.972;2023-06-04T01:32:21;4.53;;;2.30;;
3587;SDS011;1808;53.596;9.972;2023-06-04T01:34:48;6.55;;;3.13;;
3587;SDS011;1808;53.596;9.972;2023-06-04T01:37:15;4.38;;;2.40;;
3587;SDS011;1808;53.596;9.972;2023-06-04T01:39:43;10.10;;;2.60;;
3587;SDS011;1808;53.596;9.972;2023-06-04T01:42:09;3.95;;;2.30;;
3587;SDS011;1808;53.596;9.972;2023-06-04T01:44:36;4.07;;;2.28;;
3587;SDS011;1808;53.596;9.972;2023-06-04T01:47:03;5.03;;;2.88;;
3587;SDS011;1808;53.596;9.972;2023-06-04T01:49:29;7.13;;;2.58;;
3587;SDS011;1808;53.596;9.972;2023-06-04T01:51:55;4.97;;;2.50;;
3587;SDS011;1808;53.596;9.972;2023-06-04T01:54:22;5.72;;;2.72;;
3587;SDS011;1808;53.596;9.972;2023-06-04T01:56:49;4.85;;;2.75;;
3587;SDS011;1808;53.596;9.972;2023-06-04T01:59:16;5.00;;;2.75;;
3587;SDS011;1808;53.596;9.972;2023-06-04T02:01:42;4.57;;;2.40;;
3587;SDS011;1808;53.596;9.972;2023-06-04T02:04:08;4.38;;;2.67;;
3587;SDS011;1808;53.596;9.972;2023-06-04T02:06:34;5.78;;;2.78;;
3587;SDS011;1808;53.596;9.972;2023-06-04T02:09:02;5.85;;;3.05;;
3587;SDS011;1808;53.596;9.972;2023-06-04T02:11:28;7.50;;;2.72;;
3587;SDS011;1808;53.596;9.972;2023-06-04T02:13:56;8.85;;;2.92;;
3587;SDS011;1808;53.596;9.972;2023-06-04T02:16:22;6.13;;;3.67;;
3587;SDS011;1808;53.596;9.972;2023-06-04T02:18:49;8.45;;;3.72;;
3587;SDS011;1808;53.596;9.972;2023-06-04T02:21:15;5.43;;;3.10;;
3587;SDS011;1808;53.596;9.972;2023-06-04T02:23:41;6.95;;;3.72;;
3587;SDS011;1808;53.596;9.972;2023-06-04T02:26:10;8.27;;;3.28;;
3587;SDS011;1808;53.596;9.972;2023-06-04T02:28:37;5.57;;;3.42;;
3587;SDS011;1808;53.596;9.972;2023-06-04T02:31:04;7.93;;;3.42;;
3587;SDS011;1808;53.596;9.972;2023-06-04T02:33:31;6.13;;;2.95;;
3587;SDS011;1808;53.596;9.972;2023-06-04T02:35:57;8.88;;;3.22;;
3587;SDS011;1808;53.596;9.972;2023-06-04T02:38:24;6.30;;;3.10;;
3587;SDS011;1808;53.596;9.972;2023-06-04T02:40:50;7.75;;;4.03;;
3587;SDS011;1808;53.596;9.972;2023-06-04T02:43:16;7.25;;;3.78;;
3587;SDS011;1808;53.596;9.972;2023-06-04T02:45:43;5.38;;;3.53;;
3587;SDS011;1808;53.596;9.972;2023-06-04T02:48:10;6.00;;;3.58;;
3587;SDS011;1808;53.596;9.972;2023-06-04T02:50:37;4.97;;;3.05;;
3587;SDS011;1808;53.596;9.972;2023-06-04T02:53:04;7.03;;;3.05;;
3587;SDS011;1808;53.596;9.972;2023-06-04T02:55:31;5.45;;;3.17;;
3587;SDS011;1808;53.596;9.972;2023-06-04T02:57:57;5.93;;;3.10;;
3587;SDS011;1808;53.596;9.972;2023-06-04T03:00:24;5.00;;;2.85;;
3587;SDS011;1808;53.596;9.972;2023-06-04T03:02:50;5.35;;;3.08;;
3587;SDS011;1808;53.596;9.972;2023-06-04T03:05:18;5.60;;;2.97;;
3587;SDS011;1808;53.596;9.972;2023-06-04T03:07:45;4.95;;;2.85;;
3587;SDS011;1808;53.596;9.972;2023-06-04T03:10:12;6.80;;;3.17;;
3587;SDS011;1808;53.596;9.972;2023-06-04T03:12:39;7.88;;;3.13;;
3587;SDS011;1808;53.596;9.972;2023-06-04T03:15:06;4.95;;;2.60;;
3587;SDS011;1808;53.596;9.972;2023-06-04T03:17:33;5.25;;;2.75;;
3587;SDS011;1808;53.596;9.972;2023-06-04T03:19:59;6.28;;;2.63;;
3587;SDS011;1808;53.596;9.972;2023-06-04T03:22:27;5.97;;;3.38;;
3587;SDS011;1808;53.596;9.972;2023-06-04T03:24:54;5.43;;;2.80;;
3587;SDS011;1808;53.596;9.972;2023-06-04T03:27:20;4.70;;;2.70;;
3587;SDS011;1808;53.596;9.972;2023-06-04T03:29:47;5.80;;;2.58;;
3587;SDS011;1808;53.596;9.972;2023-06-04T03:32:13;4.78;;;2.35;;
3587;SDS011;1808;53.596;9.972;2023-06-04T03:34:41;5.90;;;2.53;;
3587;SDS011;1808;53.596;9.972;2023-06-04T03:37:07;7.43;;;4.10;;
3587;SDS011;1808;53.596;9.972;2023-06-04T03:39:35;5.90;;;2.30;;
3587;SDS011;1808;53.596;9.972;2023-06-04T03:42:01;5.93;;;2.75;;
3587;SDS011;1808;53.596;9.972;2023-06-04T03:44:28;7.63;;;2.50;;
3587;SDS011;1808;53.596;9.972;2023-06-04T03:46:54;4.25;;;2.40;;
3587;SDS011;1808;53.596;9.972;2023-06-04T03:49:21;5.13;;;2.50;;
3587;SDS011;1808;53.596;9.972;2023-06-04T03:51:47;5.10;;;2.50;;
3587;SDS011;1808;53.596;9.972;2023-06-04T03:54:14;4.93;;;2.72;;
3587;SDS011;1808;53.596;9.972;2023-06-04T03:56:43;4.32;;;2.83;;
3587;SDS011;1808;53.596;9.972;2023-06-04T03:59:10;5.50;;;2.60;;
3587;SDS011;1808;53.596;9.972;2023-06-04T04:01:36;4.63;;;2.72;;
3587;SDS011;1808;53.596;9.972;2023-06-04T04:04:03;5.43;;;2.83;;
3587;SDS011;1808;53.596;9.972;2023-06-04T04:06:30;7.82;;;3.35;;
3587;SDS011;1808;53.596;9.972;2023-06-04T04:08:57;7.97;;;2.55;;
3587;SDS011;1808;53.596;9.972;2023-06-04T04:11:23;5.18;;;2.80;;
3587;SDS011;1808;53.596;9.972;2023-06-04T04:13:52;6.78;;;3.15;;
3587;SDS011;1808;53.596;9.972;2023-06-04T04:16:18;5.18;;;2.42;;
3587;SDS011;1808;53.596;9.972;2023-06-04T04:18:44;7.75;;;2.53;;
3587;SDS011;1808;53.596;9.972;2023-06-04T04:21:11;7.10;;;2.90;;
3587;SDS011;1808;53.596;9.972;2023-06-04T04:23:38;4.93;;;2.95;;
3587;SDS011;1808;53.596;9.972;2023-06-04T04:26:05;3.85;;;2.20;;
3587;SDS011;1808;53.596;9.972;2023-06-04T04:28:32;6.80;;;2.67;;
3587;SDS011;1808;53.596;9.972;2023-06-04T04:31:00;4.72;;;2.55;;
3587;SDS011;1808;53.596;9.972;2023-06-04T04:33:27;6.30;;;2.65;;
3587;SDS011;1808;53.596;9.972;2023-06-04T04:35:57;5.03;;;2.75;;
3587;SDS011;1808;53.596;9.972;2023-06-04T04:38:24;5.72;;;2.78;;
3587;SDS011;1808;53.596;9.972;2023-06-04T04:40:53;4.93;;;2.72;;
3587;SDS011;1808;53.596;9.972;2023-06-04T04:43:28;4.50;;;2.70;;
3587;SDS011;1808;53.596;9.972;2023-06-04T04:45:55;5.22;;;2.38;;
3587;SDS011;1808;53.596;9.972;2023-06-04T04:48:22;6.05;;;2.50;;
3587;SDS011;1808;53.596;9.972;2023-06-04T04:50:49;8.13;;;2.90;;
3587;SDS011;1808;53.596;9.972;2023-06-04T04:53:15;6.65;;;2.90;;
3587;SDS011;1808;53.596;9.972;2023-06-04T04:55:42;6.47;;;2.70;;
3587;SDS011;1808;53.596;9.972;2023-06-04T04:58:08;6.43;;;2.70;;
3587;SDS011;1808;53.596;9.972;2023-06-04T05:00:34;6.40;;;2.80;;
3587;SDS011;1808;53.596;9.972;2023-06-04T05:03:01;5.82;;;3.13;;
3587;SDS011;1808;53.596;9.972;2023-06-04T05:05:28;5.53;;;2.80;;
3587;SDS011;1808;53.596;9.972;2023-06-04T05:07:55;8.02;;;2.47;;
3587;SDS011;1808;53.596;9.972;2023-06-04T05:10:21;6.28;;;2.80;;
3587;SDS011;1808;53.596;9.972;2023-06-04T05:12:51;9.02;;;3.15;;
3587;SDS011;1808;53.596;9.972;2023-06-04T05:15:18;7.85;;;3.22;;
3587;SDS011;1808;53.596;9.972;2023-06-04T05:17:44;4.53;;;2.47;;
3587;SDS011;1808;53.596;9.972;2023-06-04T05:20:11;12.70;;;3.95;;
3587;SDS011;1808;53.596;9.972;2023-06-04T05:22:39;6.90;;;3.03;;
3587;SDS011;1808;53.596;9.972;2023-06-04T05:25:06;9.57;;;2.80;;
3587;SDS011;1808;53.596;9.972;2023-06-04T05:27:33;7.57;;;3.13;;
3587;SDS011;1808;53.596;9.972;2023-06-04T05:30:00;11.95;;;2.97;;
3587;SDS011;1808;53.596;9.972;2023-06-04T05:32:27;10.07;;;2.88;;
3587;SDS011;1808;53.596;9.972;2023-06-04T05:34:53;6.95;;;3.35;;
3587;SDS011;1808;53.596;9.972;2023-06-04T05:37:22;7.05;;;3.08;;
3587;SDS011;1808;53.596;9.972;2023-06-04T05:39:50;8.25;;;2.83;;
3587;SDS011;1808;53.596;9.972;2023-06-04T05:42:16;8.48;;;3.13;;
3587;SDS011;1808;53.596;9.972;2023-06-04T05:44:42;5.88;;;2.58;;
3587;SDS011;1808;53.596;9.972;2023-06-04T05:47:09;9.60;;;3.33;;
3587;SDS011;1808;53.596;9.972;2023-06-04T05:49:35;7.57;;;3.03;;
3587;SDS011;1808;53.596;9.972;2023-06-04T05:52:01;7.35;;;2.75;;
3587;SDS011;1808;53.596;9.972;2023-06-04T05:54:29;9.02;;;2.97;;
3587;SDS011;1808;53.596;9.972;2023-06-04T05:56:57;10.88;;;3.20;;
3587;SDS011;1808;53.596;9.972;2023-06-04T05:59:23;8.65;;;2.97;;
3587;SDS011;1808;53.596;9.972;2023-06-04T06:01:49;8.70;;;3.33;;
3587;SDS011;1808;53.596;9.972;2023-06-04T06:04:16;9.70;;;3.13;;
3587;SDS011;1808;53.596;9.972;2023-06-04T06:06:42;6.32;;;2.78;;
3587;SDS011;1808;53.596;9.972;2023-06-04T06:09:12;10.18;;;3.20;;
3587;SDS011;1808;53.596;9.972;2023-06-04T06:11:38;8.60;;;2.90;;
3587;SDS011;1808;53.596;9.972;2023-06-04T06:14:06;7.55;;;2.90;;
3587;SDS011;1808;53.596;9.972;2023-06-04T06:16:32;11.20;;;3.58;;
3587;SDS011;1808;53.596;9.972;2023-06-04T06:18:59;8.85;;;3.63;;
3587;SDS011;1808;53.596;9.972;2023-06-04T06:21:26;5.72;;;2.53;;
3587;SDS011;1808;53.596;9.972;2023-06-04T06:23:53;6.70;;;2.45;;
3587;SDS011;1808;53.596;9.972;2023-06-04T06:26:19;8.98;;;3.30;;
3587;SDS011;1808;53.596;9.972;2023-06-04T06:28:47;9.95;;;3.88;;
3587;SDS011;1808;53.596;9.972;2023-06-04T06:31:14;7.95;;;3.10;;
3587;SDS011;1808;53.596;9.972;2023-06-04T06:33:41;7.55;;;2.70;;
3587;SDS011;1808;53.596;9.972;2023-06-04T06:36:07;6.93;;;2.65;;
3587;SDS011;1808;53.596;9.972;2023-06-04T06:38:33;6.63;;;2.90;;
3587;SDS011;1808;53.596;9.972;2023-06-04T06:41:00;8.68;;;2.80;;
3587;SDS011;1808;53.596;9.972;2023-06-04T06:43:26;7.95;;;2.47;;
3587;SDS011;1808;53.596;9.972;2023-06-04T06:45:52;5.10;;;1.92;;
3587;SDS011;1808;53.596;9.972;2023-06-04T06:48:20;10.20;;;3.42;;
3587;SDS011;1808;53.596;9.972;2023-06-04T06:50:47;5.53;;;2.50;;
3587;SDS011;1808;53.596;9.972;2023-06-04T06:53:13;5.35;;;2.13;;
3587;SDS011;1808;53.596;9.972;2023-06-04T06:55:39;10.52;;;3.13;;
3587;SDS011;1808;53.596;9.972;2023-06-04T06:58:06;6.75;;;2.10;;
3587;SDS011;1808;53.596;9.972;2023-06-04T07:00:32;7.10;;;1.70;;
3587;SDS011;1808;53.596;9.972;2023-06-04T07:02:58;11.32;;;2.35;;
3587;SDS011;1808;53.596;9.972;2023-06-04T07:05:26;5.15;;;1.88;;
3587;SDS011;1808;53.596;9.972;2023-06-04T07:07:53;7.97;;;2.10;;
3587;SDS011;1808;53.596;9.972;2023-06-04T07:10:19;5.55;;;2.15;;
3587;SDS011;1808;53.596;9.972;2023-06-04T07:12:45;7.95;;;3.08;;
3587;SDS011;1808;53.596;9.972;2023-06-04T07:15:12;5.72;;;1.85;;
3587;SDS011;1808;53.596;9.972;2023-06-04T07:17:38;6.07;;;2.35;;
3587;SDS011;1808;53.596;9.972;2023-06-04T07:20:05;6.80;;;1.75;;
3587;SDS011;1808;53.596;9.972;2023-06-04T07:22:34;3.92;;;1.70;;
3587;SDS011;1808;53.596;9.972;2023-06-04T07:25:01;7.18;;;2.67;;
3587;SDS011;1808;53.596;9.972;2023-06-04T07:27:27;5.20;;;2.00;;
3587;SDS011;1808;53.596;9.972;2023-06-04T07:29:54;5.88;;;2.00;;
3587;SDS011;1808;53.596;9.972;2023-06-04T07:32:20;6.30;;;1.92;;
3587;SDS011;1808;53.596;9.972;2023-06-04T07:34:47;5.18;;;2.00;;
3587;SDS011;1808;53.596;9.972;2023-06-04T07:37:13;5.55;;;1.55;;
3587;SDS011;1808;53.596;9.972;2023-06-04T07:39:41;6.22;;;1.95;;
3587;SDS011;1808;53.596;9.972;2023-06-04T07:42:08;4.85;;;1.73;;
3587;SDS011;1808;53.596;9.972;2023-06-04T07:44:34;6.68;;;1.90;;
3587;SDS011;1808;53.596;9.972;2023-06-04T07:47:02;6.68;;;1.80;;
3587;SDS011;1808;53.596;9.972;2023-06-04T07:49:29;6.53;;;1.98;;
3587;SDS011;1808;53.596;9.972;2023-06-04T07:51:57;6.57;;;1.70;;
3587;SDS011;1808;53.596;9.972;2023-06-04T07:54:23;7.13;;;2.83;;
3587;SDS011;1808;53.596;9.972;2023-06-04T07:56:51;10.55;;;2.17;;
3587;SDS011;1808;53.596;9.972;2023-06-04T07:59:20;4.78;;;2.03;;
3587;SDS011;1808;53.596;9.972;2023-06-04T08:01:47;5.97;;;1.92;;
3587;SDS011;1808;53.596;9.972;2023-06-04T08:04:13;9.70;;;1.90;;
3587;SDS011;1808;53.596;9.972;2023-06-04T08:06:40;4.90;;;2.00;;
3587;SDS011;1808;53.596;9.972;2023-06-04T08:09:07;4.88;;;1.70;;
3587;SDS011;1808;53.596;9.972;2023-06-04T08:11:35;8.48;;;2.03;;
3587;SDS011;1808;53.596;9.972;2023-06-04T08:14:02;8.32;;;1.80;;
3587;SDS011;1808;53.596;9.972;2023-06-04T08:16:31;6.72;;;1.83;;
3587;SDS011;1808;53.596;9.972;2023-06-04T08:18:57;6.75;;;1.92;;
3587;SDS011;1808;53.596;9.972;2023-06-04T08:21:27;5.72;;;1.80;;
3587;SDS011;1808;53.596;9.972;2023-06-04T08:23:54;4.40;;;1.88;;
3587;SDS011;1808;53.596;9.972;2023-06-04T08:26:20;3.33;;;1.55;;
3587;SDS011;1808;53.596;9.972;2023-06-04T08:28:48;4.15;;;1.50;;
3587;SDS011;1808;53.596;9.972;2023-06-04T08:31:16;5.55;;;1.83;;
3587;SDS011;1808;53.596;9.972;2023-06-04T08:33:42;4.97;;;1.83;;
3587;SDS011;1808;53.596;9.972;2023-06-04T08:36:10;4.40;;;1.63;;
3587;SDS011;1808;53.596;9.972;2023-06-04T08:38:36;4.82;;;1.88;;
3587;SDS011;1808;53.596;9.972;2023-06-04T08:41:05;5.10;;;1.92;;
3587;SDS011;1808;53.596;9.972;2023-06-04T08:43:36;8.07;;;1.70;;
3587;SDS011;1808;53.596;9.972;2023-06-04T08:46:03;4.15;;;1.60;;
3587;SDS011;1808;53.596;9.972;2023-06-04T08:48:35;4.68;;;1.40;;
3587;SDS011;1808;53.596;9.972;2023-06-04T08:51:02;4.35;;;1.63;;
3587;SDS011;1808;53.596;9.972;2023-06-04T08:53:32;7.00;;;1.67;;
3587;SDS011;1808;53.596;9.972;2023-06-04T08:55:59;3.65;;;1.30;;
3587;SDS011;1808;53.596;9.972;2023-06-04T08:58:25;6.78;;;1.67;;
3587;SDS011;1808;53.596;9.972;2023-06-04T09:00:52;3.35;;;1.45;;
3587;SDS011;1808;53.596;9.972;2023-06-04T09:03:18;6.03;;;1.40;;
3587;SDS011;1808;53.596;9.972;2023-06-04T09:05:47;5.25;;;1.52;;
3587;SDS011;1808;53.596;9.972;2023-06-04T09:08:15;5.45;;;1.60;;
3587;SDS011;1808;53.596;9.972;2023-06-04T09:10:43;5.70;;;1.77;;
3587;SDS011;1808;53.596;9.972;2023-06-04T09:13:11;4.85;;;1.23;;
3587;SDS011;1808;53.596;9.972;2023-06-04T09:15:39;3.63;;;1.33;;
3587;SDS011;1808;53.596;9.972;2023-06-04T09:18:05;5.90;;;1.75;;
3587;SDS011;1808;53.596;9.972;2023-06-04T09:20:31;2.67;;;1.30;;
3587;SDS011;1808;53.596;9.972;2023-06-04T09:22:59;3.95;;;1.30;;
3587;SDS011;1808;53.596;9.972;2023-06-04T09:25:26;3.22;;;1.40;;
3587;SDS011;1808;53.596;9.972;2023-06-04T09:27:53;4.05;;;1.38;;
3587;SDS011;1808;53.596;9.972;2023-06-04T09:30:20;6.22;;;1.40;;
3587;SDS011;1808;53.596;9.972;2023-06-04T09:32:47;4.13;;;1.40;;
3587;SDS011;1808;53.596;9.972;2023-06-04T09:35:14;4.07;;;1.30;;
3587;SDS011;1808;53.596;9.972;2023-06-04T09:37:43;4.72;;;1.50;;
3587;SDS011;1808;53.596;9.972;2023-06-04T09:40:19;3.50;;;1.75;;
3587;SDS011;1808;53.596;9.972;2023-06-04T09:42:46;4.40;;;1.58;;
3587;SDS011;1808;53.596;9.972;2023-06-04T09:45:26;14.55;;;1.83;;
3587;SDS011;1808;53.596;9.972;2023-06-04T09:47:53;5.95;;;1.65;;
3587;SDS011;1808;53.596;9.972;2023-06-04T09:50:24;4.35;;;1.70;;
3587;SDS011;1808;53.596;9.972;2023-06-04T09:52:51;7.87;;;2.07;;
3587;SDS011;1808;53.596;9.972;2023-06-04T09:55:17;4.60;;;1.33;;
3587;SDS011;1808;53.596;9.972;2023-06-04T09:57:47;5.60;;;1.55;;
3587;SDS011;1808;53.596;9.972;2023-06-04T10:00:15;4.60;;;1.70;;
3587;SDS011;1808;53.596;9.972;2023-06-04T10:02:43;4.97;;;1.38;;
3587;SDS011;1808;53.596;9.972;2023-06-04T10:05:11;4.22;;;1.50;;
3587;SDS011;1808;53.596;9.972;2023-06-04T10:07:39;4.80;;;1.45;;
3587;SDS011;1808;53.596;9.972;2023-06-04T10:10:06;3.80;;;1.40;;
3587;SDS011;1808;53.596;9.972;2023-06-04T10:12:35;4.25;;;1.27;;
3587;SDS011;1808;53.596;9.972;2023-06-04T10:15:05;3.80;;;1.40;;
3587;SDS011;1808;53.596;9.972;2023-06-04T10:17:32;5.13;;;1.30;;
3587;SDS011;1808;53.596;9.972;2023-06-04T10:19:59;4.35;;;1.60;;
3587;SDS011;1808;53.596;9.972;2023-06-04T10:22:26;9.90;;;2.42;;
3587;SDS011;1808;53.596;9.972;2023-06-04T10:24:55;6.20;;;1.80;;
3587;SDS011;1808;53.596;9.972;2023-06-04T10:27:21;6.57;;;1.52;;
3587;SDS011;1808;53.596;9.972;2023-06-04T10:29:49;5.63;;;1.58;;
3587;SDS011;1808;53.596;9.972;2023-06-04T10:32:18;4.55;;;2.20;;
3587;SDS011;1808;53.596;9.972;2023-06-04T10:34:46;3.67;;;1.65;;
3587;SDS011;1808;53.596;9.972;2023-06-04T10:37:18;5.05;;;1.67;;
3587;SDS011;1808;53.596;9.972;2023-06-04T10:42:16;3.03;;;1.48;;
3587;SDS011;1808;53.596;9.972;2023-06-04T10:44:44;4.70;;;1.65;;
3587;SDS011;1808;53.596;9.972;2023-06-04T10:47:18;8.55;;;1.83;;
3587;SDS011;1808;53.596;9.972;2023-06-04T10:49:46;4.60;;;1.75;;
3587;SDS011;1808;53.596;9.972;2023-06-04T10:52:12;5.43;;;1.80;;
3587;SDS011;1808;53.596;9.972;2023-06-04T10:54:39;4.30;;;1.75;;
3587;SDS011;1808;53.596;9.972;2023-06-04T10:57:10;5.25;;;1.77;;
3587;SDS011;1808;53.596;9.972;2023-06-04T10:59:37;7.28;;;2.00;;
3587;SDS011;1808;53.596;9.972;2023-06-04T11:02:04;5.15;;;1.70;;
3587;SDS011;1808;53.596;9.972;2023-06-04T11:04:32;6.32;;;1.50;;
3587;SDS011;1808;53.596;9.972;2023-06-04T11:07:02;4.10;;;1.75;;
3587;SDS011;1808;53.596;9.972;2023-06-04T11:09:29;4.07;;;1.70;;
3587;SDS011;1808;53.596;9.972;2023-06-04T11:11:56;2.97;;;1.52;;
3587;SDS011;1808;53.596;9.972;2023-06-04T11:14:23;4.13;;;1.70;;
3587;SDS011;1808;53.596;9.972;2023-06-04T11:16:49;7.10;;;2.00;;
3587;SDS011;1808;53.596;9.972;2023-06-04T11:19:16;3.78;;;1.70;;
3587;SDS011;1808;53.596;9.972;2023-06-04T11:21:44;6.13;;;2.00;;
3587;SDS011;1808;53.596;9.972;2023-06-04T11:24:11;4.90;;;1.73;;
3587;SDS011;1808;53.596;9.972;2023-06-04T11:26:38;4.78;;;1.60;;
3587;SDS011;1808;53.596;9.972;2023-06-04T11:29:05;4.38;;;1.58;;
3587;SDS011;1808;53.596;9.972;2023-06-04T11:31:40;6.00;;;2.08;;
3587;SDS011;1808;53.596;9.972;2023-06-04T11:34:07;4.70;;;1.98;;
3587;SDS011;1808;53.596;9.972;2023-06-04T11:36:33;6.28;;;1.85;;
3587;SDS011;1808;53.596;9.972;2023-06-04T11:39:03;6.97;;;1.95;;
3587;SDS011;1808;53.596;9.972;2023-06-04T11:41:32;4.75;;;1.77;;
3587;SDS011;1808;53.596;9.972;2023-06-04T11:44:00;5.05;;;1.95;;
3587;SDS011;1808;53.596;9.972;2023-06-04T11:46:28;4.18;;;1.70;;
3587;SDS011;1808;53.596;9.972;2023-06-04T11:48:54;3.92;;;1.95;;
3587;SDS011;1808;53.596;9.972;2023-06-04T11:51:21;5.82;;;1.73;;
3587;SDS011;1808;53.596;9.972;2023-06-04T11:53:47;3.80;;;1.42;;
3587;SDS011;1808;53.596;9.972;2023-06-04T11:56:15;5.57;;;1.42;;
3587;SDS011;1808;53.596;9.972;2023-06-04T11:58:41;4.75;;;1.70;;
3587;SDS011;1808;53.596;9.972;2023-06-04T12:01:08;4.00;;;1.40;;
3587;SDS011;1808;53.596;9.972;2023-06-04T12:03:35;5.65;;;2.53;;
3587;SDS011;1808;53.596;9.972;2023-06-04T12:06:14;3.88;;;1.90;;
3587;SDS011;1808;53.596;9.972;2023-06-04T12:08:45;5.70;;;1.73;;
3587;SDS011;1808;53.596;9.972;2023-06-04T12:11:27;8.57;;;3.00;;
3587;SDS011;1808;53.596;9.972;2023-06-04T12:13:56;4.65;;;1.77;;
3587;SDS011;1808;53.596;9.972;2023-06-04T12:16:23;4.85;;;1.70;;
3587;SDS011;1808;53.596;9.972;2023-06-04T12:18:50;4.82;;;1.45;;
3587;SDS011;1808;53.596;9.972;2023-06-04T12:21:17;6.30;;;1.60;;
3587;SDS011;1808;53.596;9.972;2023-06-04T12:23:47;5.30;;;1.70;;
3587;SDS011;1808;53.596;9.972;2023-06-04T12:26:22;5.38;;;1.55;;
3587;SDS011;1808;53.596;9.972;2023-06-04T12:29:00;4.53;;;1.77;;
3587;SDS011;1808;53.596;9.972;2023-06-04T12:31:27;6.57;;;1.70;;
3587;SDS011;1808;53.596;9.972;2023-06-04T12:33:56;5.60;;;2.08;;
3587;SDS011;1808;53.596;9.972;2023-06-04T12:36:23;4.13;;;1.75;;
3587;SDS011;1808;53.596;9.972;2023-06-04T12:38:50;4.18;;;1.77;;
3587;SDS011;1808;53.596;9.972;2023-06-04T12:41:17;5.90;;;1.80;;
3587;SDS011;1808;53.596;9.972;2023-06-04T12:43:44;4.25;;;1.52;;
3587;SDS011;1808;53.596;9.972;2023-06-04T12:46:11;5.47;;;2.17;;
3587;SDS011;1808;53.596;9.972;2023-06-04T12:48:38;3.58;;;1.60;;
3587;SDS011;1808;53.596;9.972;2023-06-04T12:51:04;8.25;;;1.80;;
3587;SDS011;1808;53.596;9.972;2023-06-04T12:53:31;8.73;;;1.40;;
3587;SDS011;1808;53.596;9.972;2023-06-04T12:55:57;5.68;;;1.50;;
3587;SDS011;1808;53.596;9.972;2023-06-04T12:58:24;3.42;;;1.60;;
3587;SDS011;1808;53.596;9.972;2023-06-04T13:00:50;4.07;;;1.75;;
3587;SDS011;1808;53.596;9.972;2023-06-04T13:03:18;5.05;;;1.75;;
3587;SDS011;1808;53.596;9.972;2023-06-04T13:05:44;3.35;;;1.70;;
3587;SDS011;1808;53.596;9.972;2023-06-04T13:08:10;3.40;;;1.92;;
3587;SDS011;1808;53.596;9.972;2023-06-04T13:10:37;3.70;;;1.50;;
3587;SDS011;1808;53.596;9.972;2023-06-04T13:13:03;3.67;;;1.70;;
3587;SDS011;1808;53.596;9.972;2023-06-04T13:15:30;5.07;;;1.60;;
3587;SDS011;1808;53.596;9.972;2023-06-04T13:17:56;7.05;;;1.50;;
3587;SDS011;1808;53.596;9.972;2023-06-04T13:20:23;2.45;;;1.30;;
3587;SDS011;1808;53.596;9.972;2023-06-04T13:22:50;3.67;;;1.45;;
3587;SDS011;1808;53.596;9.972;2023-06-04T13:25:17;2.72;;;1.52;;
3587;SDS011;1808;53.596;9.972;2023-06-04T13:27:44;3.72;;;1.52;;
3587;SDS011;1808;53.596;9.972;2023-06-04T13:30:11;2.92;;;1.40;;
3587;SDS011;1808;53.596;9.972;2023-06-04T13:32:38;4.32;;;1.65;;
3587;SDS011;1808;53.596;9.972;2023-06-04T13:35:04;4.50;;;1.60;;
3587;SDS011;1808;53.596;9.972;2023-06-04T13:37:33;2.95;;;1.45;;
3587;SDS011;1808;53.596;9.972;2023-06-04T13:39:59;5.47;;;1.95;;
3587;SDS011;1808;53.596;9.972;2023-06-04T13:42:25;3.90;;;2.22;;
3587;SDS011;1808;53.596;9.972;2023-06-04T13:44:52;3.58;;;1.60;;
3587;SDS011;1808;53.596;9.972;2023-06-04T13:47:18;8.98;;;1.52;;
3587;SDS011;1808;53.596;9.972;2023-06-04T13:49:46;4.40;;;1.52;;
3587;SDS011;1808;53.596;9.972;2023-06-04T13:52:12;5.13;;;1.80;;
3587;SDS011;1808;53.596;9.972;2023-06-04T13:54:40;5.63;;;1.73;;
3587;SDS011;1808;53.596;9.972;2023-06-04T13:57:06;4.97;;;1.60;;
3587;SDS011;1808;53.596;9.972;2023-06-04T13:59:36;5.45;;;1.55;;
3587;SDS011;1808;53.596;9.972;2023-06-04T14:02:02;9.00;;;2.10;;
3587;SDS011;1808;53.596;9.972;2023-06-04T14:04:29;3.90;;;1.98;;
3587;SDS011;1808;53.596;9.972;2023-06-04T14:06:55;13.32;;;2.42;;
3587;SDS011;1808;53.596;9.972;2023-06-04T14:09:21;3.42;;;1.50;;
3587;SDS011;1808;53.596;9.972;2023-06-04T14:11:49;4.20;;;1.67;;
3587;SDS011;1808;53.596;9.972;2023-06-04T14:14:16;4.95;;;1.77;;
3587;SDS011;1808;53.596;9.972;2023-06-04T14:16:43;3.10;;;1.42;;
3587;SDS011;1808;53.596;9.972;2023-06-04T14:19:10;4.10;;;1.60;;
3587;SDS011;1808;53.596;9.972;2023-06-04T14:21:36;3.53;;;1.90;;
3587;SDS011;1808;53.596;9.972;2023-06-04T14:24:02;4.70;;;1.73;;
3587;SDS011;1808;53.596;9.972;2023-06-04T14:26:29;3.47;;;1.40;;
3587;SDS011;1808;53.596;9.972;2023-06-04T14:28:57;3.95;;;1.90;;
3587;SDS011;1808;53.596;9.972;2023-06-04T14:31:23;5.10;;;2.28;;
3587;SDS011;1808;53.596;9.972;2023-06-04T14:33:50;4.57;;;1.63;;
3587;SDS011;1808;53.596;9.972;2023-06-04T14:36:16;4.18;;;1.55;;
3587;SDS011;1808;53.596;9.972;2023-06-04T14:38:42;2.92;;;1.40;;
3587;SDS011;1808;53.596;9.972;2023-06-04T14:41:09;4.50;;;2.00;;
3587;SDS011;1808;53.596;9.972;2023-06-04T14:43:36;5.40;;;1.88;;
3587;SDS011;1808;53.596;9.972;2023-06-04T14:46:03;3.92;;;1.63;;
3587;SDS011;1808;53.596;9.972;2023-06-04T14:48:30;5.47;;;1.55;;
3587;SDS011;1808;53.596;9.972;2023-06-04T14:50:56;5.60;;;1.65;;
3587;SDS011;1808;53.596;9.972;2023-06-04T14:53:23;5.57;;;1.75;;
3587;SDS011;1808;53.596;9.972;2023-06-04T14:55:49;5.35;;;1.58;;
3587;SDS011;1808;53.596;9.972;2023-06-04T14:58:16;4.13;;;1.52;;
3587;SDS011;1808;53.596;9.972;2023-06-04T15:00:43;4.55;;;1.85;;
3587;SDS011;1808;53.596;9.972;2023-06-04T15:03:10;6.97;;;1.70;;
3587;SDS011;1808;53.596;9.972;2023-06-04T15:05:37;5.40;;;2.00;;
3587;SDS011;1808;53.596;9.972;2023-06-04T15:08:03;2.63;;;1.50;;
3587;SDS011;1808;53.596;9.972;2023-06-04T15:10:30;4.07;;;2.08;;
3587;SDS011;1808;53.596;9.972;2023-06-04T15:12:58;3.58;;;1.58;;
3587;SDS011;1808;53.596;9.972;2023-06-04T15:15:25;4.88;;;1.98;;
3587;SDS011;1808;53.596;9.972;2023-06-04T15:17:51;3.70;;;1.90;;